Carver Park, New York
Current Conditions -  °F | °C
As of 2:56 PM on Wednesday 17 Dec 2014 (Local Time) from KHWV Reporting Station
Overcast Overcast  
Wind Chill: 51°   Ceiling: 4100
Heat Index: 51°   Visibility: 10mi
Dew Point: 39°   Wind: 14mph
Humidity: 63%   Direction: 310°NW
Pressure: 29.79"   Gusts: NA
Location:  40.835°N, 72.922°W
Report Text: KHWV 171956Z AUTO 31012KT 10SM OVC041 11/04 A2979 RMK AO2 SLP088 T01060039 TSNO
Loading
Personal Weather Stations






























Interactive Weather Map New forecast layout! Learn more

10-Day Weather Forecast

Advertisements
Track Severe Weather on mobile